Time;durP1;ratioP1;P1;durP2;ratioP2;P2;SDS_P1;SDS_P2;PMS_P1;PMS_P2;Temp;Humidity;BMP_temperature;BMP_pressure;BME280_temperature;BME280_humidity;BME280_pressure;Samples;Min_cycle;Max_cycle;Signal;HPM_P1;HPM_P2
2022/04/10 00:00:22;;;;;;;;;20.75;19.75;;;;;6.83;100.00;101671.13;6397684;22;45319;-90
2022/04/10 00:02:48;;;;;;;;;24.00;19.25;;;;;6.77;100.00;101658.56;6369382;22;45516;-90
2022/04/10 00:05:13;;;;;;;;;19.25;19.25;;;;;6.85;100.00;101668.66;6397488;22;45379;-90
2022/04/10 00:07:39;;;;;;;;;20.00;18.75;;;;;6.82;100.00;101671.94;6368835;22;47314;-91
2022/04/10 00:10:05;;;;;;;;;20.00;19.50;;;;;6.77;100.00;101665.47;6367823;22;45448;-90
2022/04/10 00:12:35;;;;;;;;;19.75;18.00;;;;;6.78;100.00;101660.34;6369501;22;45562;-91
2022/04/10 00:15:02;;;;;;;;;19.25;16.00;;;;;6.78;100.00;101657.75;6395502;22;45533;-90
2022/04/10 00:17:27;;;;;;;;;16.75;16.75;;;;;6.76;100.00;101653.19;6368742;22;47418;-91
2022/04/10 00:19:53;;;;;;;;;21.75;18.75;;;;;6.70;100.00;101646.72;6398083;22;45577;-90
2022/04/10 00:22:18;;;;;;;;;17.50;16.25;;;;;6.62;100.00;101636.50;6398379;22;45305;-90
2022/04/10 00:24:44;;;;;;;;;22.50;19.00;;;;;6.61;100.00;101640.81;6386628;22;45331;-90
2022/04/10 00:27:13;;;;;;;;;18.00;16.00;;;;;6.59;100.00;101645.94;6397821;22;45247;-90
2022/04/10 00:29:42;;;;;;;;;19.25;16.75;;;;;6.58;100.00;101649.31;6397770;22;44832;-91
2022/04/10 00:32:07;;;;;;;;;18.00;15.00;;;;;6.58;100.00;101651.00;6424893;22;45027;-91
2022/04/10 00:34:33;;;;;;;;;18.50;17.00;;;;;6.50;100.00;101634.78;6400629;22;45312;-91
2022/04/10 00:36:58;;;;;;;;;21.75;16.75;;;;;6.55;100.00;101656.91;6398871;22;45982;-90
2022/04/10 00:39:24;;;;;;;;;14.75;13.50;;;;;6.48;100.00;101652.94;6369795;22;45362;-91
2022/04/10 00:41:50;;;;;;;;;14.50;13.50;;;;;6.40;100.00;101634.84;6370478;22;45264;-91
2022/04/10 00:44:16;;;;;;;;;20.75;18.75;;;;;6.41;100.00;101642.81;6369626;22;45269;-91
2022/04/10 00:46:41;;;;;;;;;13.50;13.50;;;;;6.41;100.00;101661.06;6368854;22;48011;-90
2022/04/10 00:49:07;;;;;;;;;17.50;13.25;;;;;6.32;100.00;101647.31;6369763;22;45687;-91
2022/04/10 00:51:46;;;;;;;;;18.75;16.25;;;;;6.29;100.00;101654.91;6369974;22;45258;-90
2022/04/10 00:54:21;;;;;;;;;16.75;15.75;;;;;6.28;100.00;101653.09;6396316;22;45409;-91
2022/04/10 00:56:47;;;;;;;;;21.00;16.50;;;;;6.21;100.00;101641.28;6369695;22;46268;-91
2022/04/10 00:59:13;;;;;;;;;18.25;17.75;;;;;6.18;100.00;101635.81;6396882;22;45391;-90
2022/04/10 01:01:44;;;;;;;;;22.75;22.00;;;;;6.22;100.00;101644.00;6370128;22;45456;-91
2022/04/10 01:04:11;;;;;;;;;16.75;16.00;;;;;6.06;100.00;101631.41;6370339;22;45493;-91
2022/04/10 01:06:37;;;;;;;;;16.00;14.25;;;;;6.06;100.00;101639.25;6398469;22;45350;-92
2022/04/10 01:09:04;;;;;;;;;17.25;16.25;;;;;6.13;100.00;101651.09;6369180;22;45700;-91
2022/04/10 01:11:29;;;;;;;;;18.50;16.00;;;;;6.02;100.00;101634.59;6398727;22;45523;-91
2022/04/10 01:13:55;;;;;;;;;20.75;19.00;;;;;5.99;100.00;101632.66;6369308;22;45468;-91
2022/04/10 01:16:24;;;;;;;;;21.25;19.00;;;;;5.95;100.00;101627.09;6396319;22;46932;-91
2022/04/10 01:18:50;;;;;;;;;17.75;15.25;;;;;6.03;100.00;101641.63;6399386;22;45518;-92
2022/04/10 01:21:23;;;;;;;;;17.00;15.25;;;;;5.99;100.00;101639.56;6369580;22;45628;-91
2022/04/10 01:23:49;;;;;;;;;14.75;14.75;;;;;5.99;100.00;101645.69;6396169;22;45520;-91
2022/04/10 01:26:14;;;;;;;;;21.25;15.25;;;;;5.93;100.00;101634.75;6369616;22;46919;-91
2022/04/10 01:28:57;;;;;;;;;16.75;14.25;;;;;5.97;100.00;101642.06;6395710;22;45711;-90
2022/04/10 01:31:22;;;;;;;;;13.50;11.00;;;;;5.86;100.00;101627.25;6398688;22;45429;-90
2022/04/10 01:33:48;;;;;;;;;18.50;14.50;;;;;5.89;100.00;101635.31;6369637;22;45503;-91
2022/04/10 01:36:14;;;;;;;;;16.75;15.25;;;;;5.91;100.00;101638.94;6368510;22;47446;-91
2022/04/10 01:38:42;;;;;;;;;15.25;15.25;;;;;5.82;100.00;101618.31;6395829;22;45553;-90
2022/04/10 01:41:12;;;;;;;;;16.50;13.75;;;;;5.85;100.00;101628.94;6370249;22;45437;-90
2022/04/10 01:43:47;;;;;;;;;15.50;14.75;;;;;5.75;100.00;101624.69;6369811;22;45672;-90
2022/04/10 01:46:13;;;;;;;;;17.50;16.25;;;;;5.81;100.00;101629.50;6368843;22;47224;-91
2022/04/10 01:48:39;;;;;;;;;18.25;16.00;;;;;5.80;100.00;101636.41;6368861;22;45334;-90
2022/04/10 01:51:05;;;;;;;;;17.75;17.25;;;;;5.74;100.00;101615.09;6368358;22;45596;-91
2022/04/10 01:53:30;;;;;;;;;18.00;14.50;;;;;5.76;100.00;101623.94;6370593;22;45363;-91
2022/04/10 01:55:56;;;;;;;;;13.25;12.00;;;;;5.72;100.00;101624.44;6369341;22;47219;-90
2022/04/10 01:58:21;;;;;;;;;17.50;14.25;;;;;5.63;100.00;101598.59;6398813;22;45479;-90
2022/04/10 02:00:47;;;;;;;;;21.75;20.50;;;;;5.64;100.00;101620.34;6369643;22;45324;-90
2022/04/10 02:03:12;;;;;;;;;20.75;14.75;;;;;5.59;100.00;101620.00;6370273;22;45661;-90
2022/04/10 02:05:38;;;;;;;;;17.00;17.00;;;;;5.61;100.00;101617.50;6398027;22;46638;-91
2022/04/10 02:08:03;;;;;;;;;19.25;14.50;;;;;5.59;100.00;101620.00;6370415;22;45687;-89
2022/04/10 02:10:29;;;;;;;;;19.25;16.75;;;;;5.48;100.00;101603.50;6397921;22;45448;-90
2022/04/10 02:12:54;;;;;;;;;21.75;19.25;;;;;5.39;100.00;101598.44;6370133;22;45375;-91
2022/04/10 02:15:19;;;;;;;;;21.75;20.75;;;;;5.50;100.00;101617.53;6368883;22;47186;-91
2022/04/10 02:17:45;;;;;;;;;20.75;17.75;;;;;5.46;100.00;101605.97;6370722;22;45604;-90
2022/04/10 02:20:10;;;;;;;;;14.50;13.75;;;;;5.42;100.00;101597.78;6368682;22;45389;-91
2022/04/10 02:22:36;;;;;;;;;18.00;18.00;;;;;5.39;100.00;101597.53;6396567;22;45528;-91
2022/04/10 02:25:02;;;;;;;;;10.00;7.25;;;;;5.42;100.00;101605.59;6369977;22;47218;-91
2022/04/10 02:27:27;;;;;;;;;20.00;18.25;;;;;5.32;100.00;101589.25;6370192;22;45420;-91
2022/04/10 02:29:53;;;;;;;;;20.50;16.50;;;;;5.40;100.00;101614.97;6369861;22;45688;-91
2022/04/10 02:32:19;;;;;;;;;15.50;15.50;;;;;5.30;100.00;101595.13;6369586;22;45313;-91
2022/04/10 02:34:44;;;;;;;;;21.25;18.50;;;;;5.31;100.00;101603.03;6398321;22;45297;-91
2022/04/10 02:37:10;;;;;;;;;24.00;19.25;;;;;5.31;100.00;101607.34;6368995;22;45535;-90
2022/04/10 02:39:35;;;;;;;;;25.25;20.50;;;;;5.27;100.00;101600.97;6370362;22;45398;-91
2022/04/10 02:42:01;;;;;;;;;26.25;18.25;;;;;5.28;100.00;101612.31;6397853;22;45426;-91
2022/04/10 02:44:26;;;;;;;;;18.25;18.25;;;;;5.27;100.00;101603.59;6369226;22;46264;-91
2022/04/10 02:46:51;;;;;;;;;20.50;20.25;;;;;5.26;100.00;101604.34;6369741;22;45404;-90
2022/04/10 02:49:17;;;;;;;;;24.50;19.75;;;;;5.23;100.00;101609.34;6369685;22;45396;-91
2022/04/10 02:51:42;;;;;;;;;27.75;20.25;;;;;5.14;100.00;101600.00;6398006;22;45796;-90
2022/04/10 02:54:08;;;;;;;;;27.00;21.50;;;;;5.15;100.00;101606.13;6370088;22;47126;-91
2022/04/10 02:56:33;;;;;;;;;23.75;19.50;;;;;5.13;100.00;101615.47;6369205;22;45448;-91
2022/04/10 02:58:58;;;;;;;;;25.50;20.75;;;;;5.10;100.00;101605.72;6395982;22;45493;-91
2022/04/10 03:01:24;;;;;;;;;26.25;22.75;;;;;5.04;100.00;101600.03;6369707;22;45272;-91
2022/04/10 03:03:49;;;;;;;;;24.50;18.75;;;;;5.06;100.00;101608.84;6369276;22;46907;-91
2022/04/10 03:06:14;;;;;;;;;20.75;20.50;;;;;5.01;100.00;101603.28;6398349;22;45355;-91
2022/04/10 03:08:40;;;;;;;;;21.25;14.00;;;;;5.02;100.00;101614.59;6369451;22;45256;-89
2022/04/10 03:11:05;;;;;;;;;22.50;20.25;;;;;4.96;100.00;101607.19;6369232;22;45373;-91
2022/04/10 03:13:30;;;;;;;;;22.00;17.75;;;;;4.91;100.00;101603.31;6395906;22;47012;-90
2022/04/10 03:15:56;;;;;;;;;20.50;20.00;;;;;4.94;100.00;101613.06;6397983;22;45312;-90
2022/04/10 03:18:21;;;;;;;;;26.50;21.75;;;;;4.86;100.00;101602.00;6369455;22;45327;-91
2022/04/10 03:20:46;;;;;;;;;21.00;20.00;;;;;4.83;100.00;101600.06;6368868;22;45509;-91
2022/04/10 03:23:12;;;;;;;;;21.50;18.75;;;;;4.85;100.00;101608.91;6397390;22;46077;-89
2022/04/10 03:25:37;;;;;;;;;20.50;19.00;;;;;4.89;100.00;101623.09;6397642;22;45242;-90
2022/04/10 03:28:03;;;;;;;;;23.00;19.25;;;;;4.83;100.00;101614.75;6396284;22;45293;-89
2022/04/10 03:30:28;;;;;;;;;21.75;18.50;;;;;4.89;100.00;101625.69;6397532;22;45330;-90
2022/04/10 03:32:54;;;;;;;;;21.50;19.25;;;;;4.82;100.00;101616.44;6397925;22;45244;-91
2022/04/10 03:35:19;;;;;;;;;26.00;23.75;;;;;4.80;100.00;101612.81;6397728;22;45337;-90
2022/04/10 03:37:44;;;;;;;;;22.50;22.25;;;;;4.72;100.00;101604.38;6398439;22;45585;-90
2022/04/10 03:40:10;;;;;;;;;27.00;20.75;;;;;4.72;100.00;101613.88;6369103;22;45464;-89
2022/04/10 03:42:38;;;;;;;;;22.50;21.00;;;;;4.75;100.00;101622.84;6397090;22;46534;-89
2022/04/10 03:45:04;;;;;;;;;24.00;23.00;;;;;4.72;100.00;101621.66;6397471;22;45441;-89
2022/04/10 03:47:29;;;;;;;;;24.75;19.50;;;;;4.65;100.00;101615.06;6368769;22;45339;-89
2022/04/10 03:49:55;;;;;;;;;27.50;22.00;;;;;4.62;100.00;101607.00;6397703;22;45363;-89
2022/04/10 03:52:20;;;;;;;;;27.00;23.00;;;;;4.65;100.00;101620.25;6397513;22;45488;-90
2022/04/10 03:54:45;;;;;;;;;25.00;24.75;;;;;4.65;100.00;101618.56;6369767;22;45461;-89
2022/04/10 03:57:10;;;;;;;;;21.50;20.00;;;;;4.58;100.00;101609.34;6369760;22;45317;-90
2022/04/10 03:59:36;;;;;;;;;23.75;19.25;;;;;4.56;100.00;101610.91;6398479;22;45307;-90
2022/04/10 04:02:01;;;;;;;;;18.75;18.50;;;;;4.61;100.00;101616.50;6394438;22;47080;-90
2022/04/10 04:04:27;;;;;;;;;21.75;17.50;;;;;4.50;100.00;101607.78;6427220;22;44691;-90
2022/04/10 04:06:52;;;;;;;;;23.00;20.25;;;;;4.56;100.00;101615.22;6426619;22;44709;-90
2022/04/10 04:09:17;;;;;;;;;20.00;16.50;;;;;4.49;100.00;101607.66;6424783;22;45190;-91
2022/04/10 04:11:43;;;;;;;;;19.75;16.00;;;;;4.41;100.00;101605.31;6399590;22;45608;-90
2022/04/10 04:14:08;;;;;;;;;20.75;17.75;;;;;4.39;100.00;101606.88;6398731;22;45309;-90
2022/04/10 04:16:34;;;;;;;;;16.00;16.00;;;;;4.41;100.00;101605.31;6398794;22;45473;-91
2022/04/10 04:18:59;;;;;;;;;12.25;12.25;;;;;4.36;100.00;101601.41;6398877;22;45385;-89
2022/04/10 04:21:25;;;;;;;;;21.50;20.25;;;;;4.30;100.00;101596.63;6398888;22;45496;-91
2022/04/10 04:23:51;;;;;;;;;18.00;16.50;;;;;4.32;100.00;101609.75;6369675;22;45771;-91
2022/04/10 04:26:16;;;;;;;;;17.50;16.25;;;;;4.29;100.00;101599.09;6370387;22;45393;-90
2022/04/10 04:28:42;;;;;;;;;19.50;16.75;;;;;4.32;100.00;101604.53;6368840;22;45747;-90
2022/04/10 04:31:07;;;;;;;;;19.75;17.75;;;;;4.27;100.00;101601.56;6369136;22;46971;-90
2022/04/10 04:33:32;;;;;;;;;22.50;17.75;;;;;4.27;100.00;101605.84;6398961;22;45464;-90
2022/04/10 04:35:58;;;;;;;;;19.50;15.50;;;;;4.28;100.00;101612.88;6368745;22;45642;-90
2022/04/10 04:38:23;;;;;;;;;20.50;16.75;;;;;4.32;100.00;101623.66;6369321;22;45470;-90
2022/04/10 04:40:48;;;;;;;;;20.25;15.50;;;;;4.23;100.00;101618.56;6369558;22;47185;-90
2022/04/10 04:43:14;;;;;;;;;16.75;15.25;;;;;4.22;100.00;101619.38;6369690;22;45928;-90
2022/04/10 04:45:39;;;;;;;;;20.25;18.00;;;;;4.23;100.00;101622.84;6395870;22;45372;-90
2022/04/10 04:48:06;;;;;;;;;16.75;15.50;;;;;4.20;100.00;101628.69;6370348;22;45511;-90
2022/04/10 04:50:32;;;;;;;;;18.25;16.00;;;;;4.15;100.00;101631.72;6398151;22;46541;-90
2022/04/10 04:52:57;;;;;;;;;16.25;15.00;;;;;4.18;100.00;101642.34;6398392;22;45268;-89
2022/04/10 04:55:23;;;;;;;;;19.75;15.25;;;;;4.09;100.00;101626.88;6396468;22;45733;-90
2022/04/10 04:57:48;;;;;;;;;11.00;10.50;;;;;4.16;100.00;101649.09;6369626;22;45382;-90
2022/04/10 05:00:14;;;;;;;;;12.25;12.25;;;;;4.09;100.00;101633.00;6368393;22;48240;-90
2022/04/10 05:02:39;;;;;;;;;16.50;13.00;;;;;4.07;100.00;101631.94;6369430;22;45667;-90
2022/04/10 05:05:05;;;;;;;;;10.25;10.25;;;;;4.12;100.00;101650.53;6398599;22;45369;-89
2022/04/10 05:07:30;;;;;;;;;16.25;12.00;;;;;4.05;100.00;101641.28;6397541;22;45446;-90
2022/04/10 05:09:55;;;;;;;;;12.00;10.25;;;;;4.01;100.00;101634.94;6369398;22;47090;-89
2022/04/10 05:12:21;;;;;;;;;9.50;9.50;;;;;4.05;100.00;101645.56;6369386;22;45370;-91
2022/04/10 05:14:46;;;;;;;;;14.00;11.25;;;;;4.01;100.00;101640.13;6398052;22;45574;-88
2022/04/10 05:17:12;;;;;;;;;9.00;9.00;;;;;3.94;100.00;101627.41;6369494;22;45478;-90
2022/04/10 05:19:37;;;;;;;;;16.25;11.25;;;;;3.98;100.00;101637.25;6398915;22;46111;-90
2022/04/10 05:22:03;;;;;;;;;16.25;14.75;;;;;4.03;100.00;101648.03;6368314;22;45797;-90
2022/04/10 05:24:28;;;;;;;;;17.00;13.50;;;;;4.01;100.00;101645.31;6369903;22;45758;-90
2022/04/10 05:26:54;;;;;;;;;15.25;15.25;;;;;3.98;100.00;101636.34;6407213;22;45293;-89
2022/04/10 05:29:20;;;;;;;;;20.25;18.25;;;;;4.01;100.00;101645.31;6369136;22;47334;-90
2022/04/10 05:31:45;;;;;;;;;20.00;16.25;;;;;4.06;100.00;101650.91;6369423;22;45327;-90
2022/04/10 05:34:10;;;;;;;;;15.75;15.25;;;;;4.12;100.00;101660.94;6398334;22;45695;-90
2022/04/10 05:36:36;;;;;;;;;20.50;18.25;;;;;4.15;100.00;101663.78;6368474;22;45669;-90
2022/04/10 05:39:01;;;;;;;;;18.25;14.50;;;;;4.12;100.00;101656.63;6369123;22;46949;-90
2022/04/10 05:41:26;;;;;;;;;8.75;6.75;;;;;4.18;100.00;101656.25;6398735;22;45263;-90
2022/04/10 05:43:52;;;;;;;;;16.00;13.50;;;;;4.27;100.00;101668.22;6374220;22;45391;-90
2022/04/10 05:46:17;;;;;;;;;17.75;15.75;;;;;4.19;100.00;101649.38;6368831;22;45521;-90
2022/04/10 05:48:42;;;;;;;;;17.00;14.25;;;;;4.38;100.00;101680.44;6398657;22;45305;-90
2022/04/10 05:51:08;;;;;;;;;22.00;17.00;;;;;4.40;100.00;101665.00;6368974;22;45260;-90
2022/04/10 05:53:34;;;;;;;;;16.50;15.50;;;;;4.39;100.00;101648.47;6396698;22;45537;-90
2022/04/10 05:55:59;;;;;;;;;13.75;13.25;;;;;4.58;100.00;101666.56;6368904;22;45306;-90
2022/04/10 05:58:25;;;;;;;;;21.00;15.50;;;;;4.63;100.00;101658.22;6396966;22;45422;-91
2022/04/10 06:00:51;;;;;;;;;14.75;12.75;;;;;4.77;100.00;101673.31;6397388;22;45295;-90
2022/04/10 06:03:16;;;;;;;;;16.25;16.25;;;;;4.80;100.00;101660.56;6369573;22;45382;-91
2022/04/10 06:05:41;;;;;;;;;13.00;13.00;;;;;4.98;100.00;101677.56;6371182;22;45503;-90
2022/04/10 06:08:07;;;;;;;;;17.25;13.75;;;;;5.03;100.00;101671.97;6397955;22;46747;-90
2022/04/10 06:10:32;;;;;;;;;22.75;15.00;;;;;5.18;100.00;101675.72;6396614;22;45493;-91
2022/04/10 06:13:09;;;;;;;;;16.50;14.75;;;;;5.29;100.00;101676.59;6396349;22;45482;-90
2022/04/10 06:15:34;;;;;;;;;22.75;21.25;;;;;5.34;100.00;101665.78;6369041;22;45391;-90
2022/04/10 06:18:00;;;;;;;;;21.50;17.75;;;;;5.43;100.00;101662.13;6368546;22;47976;-81
2022/04/10 06:20:25;;;;;;;;;17.75;15.75;;;;;5.61;100.00;101673.13;6395824;22;45912;-81
2022/04/10 06:22:50;;;;;;;;;16.25;15.00;;;;;5.71;100.00;101682.56;6367004;22;45434;-82
2022/04/10 06:25:15;;;;;;;;;19.75;17.00;;;;;5.79;100.00;101684.09;6367105;22;48981;-82
2022/04/10 06:27:41;;;;;;;;;18.25;15.50;;;;;5.88;100.00;101683.91;6395925;22;57866;-82
2022/04/10 06:30:06;;;;;;;;;21.25;20.00;;;;;5.99;100.00;101681.25;6395267;22;45367;-81
2022/04/10 06:32:32;;;;;;;;;21.50;18.00;;;;;6.09;100.00;101678.63;6396508;22;45292;-83
2022/04/10 06:34:57;;;;;;;;;22.25;18.00;;;;;6.16;100.00;101679.13;6396158;22;50853;-82
2022/04/10 06:37:22;;;;;;;;;22.00;21.75;;;;;6.24;100.00;101672.78;6395339;22;46389;-82
2022/04/10 06:39:47;;;;;;;;;22.00;20.75;;;;;6.34;100.00;101679.66;6396235;22;45964;-82
2022/04/10 06:42:13;;;;;;;;;26.50;22.25;;;;;6.43;100.00;101692.47;6395426;22;53361;-82
2022/04/10 06:44:41;;;;;;;;;21.00;18.00;;;;;6.51;100.00;101698.28;6396454;22;45499;-82
2022/04/10 06:47:06;;;;;;;;;25.25;22.50;;;;;6.56;100.00;101702.16;6396238;22;45432;-82
2022/04/10 06:49:31;;;;;;;;;26.75;24.00;;;;;6.62;100.00;101699.13;6396146;22;45474;-82
2022/04/10 06:51:57;;;;;;;;;23.25;20.00;;;;;6.68;100.00;101694.38;6395643;22;45321;-82
2022/04/10 06:54:22;;;;;;;;;29.25;24.25;;;;;6.73;100.00;101686.88;6396449;22;45389;-82
2022/04/10 06:56:47;;;;;;;;;22.00;21.00;;;;;6.79;100.00;101690.88;6396422;22;45383;-86
2022/04/10 06:59:13;;;;;;;;;32.00;26.25;;;;;6.85;100.00;101697.38;6366903;22;45407;-82
2022/04/10 07:01:38;;;;;;;;;25.75;22.25;;;;;6.91;100.00;101696.13;6396421;22;45380;-83
2022/04/10 07:04:04;;;;;;;;;22.50;20.50;;;;;7.03;100.00;101690.94;6396702;22;45364;-84
2022/04/10 07:06:30;;;;;;;;;26.50;23.50;;;;;7.10;100.00;101684.47;6369504;22;48742;-83
2022/04/10 07:08:57;;;;;;;;;23.00;21.25;;;;;7.21;100.00;101694.81;6397013;22;45299;-82
2022/04/10 07:11:22;;;;;;;;;20.50;18.75;;;;;7.29;100.00;101698.91;6395866;22;45198;-82
2022/04/10 07:13:47;;;;;;;;;25.50;20.50;;;;;7.39;100.00;101710.94;6395892;22;45686;-82
2022/04/10 07:16:13;;;;;;;;;23.50;20.00;;;;;7.46;100.00;101707.06;6395089;22;60853;-82
2022/04/10 07:18:38;;;;;;;;;26.50;23.00;;;;;7.54;100.00;101695.47;6396774;22;45645;-82
2022/04/10 07:21:04;;;;;;;;;23.75;23.00;;;;;7.64;100.00;101696.13;6395105;22;48194;-85
2022/04/10 07:23:42;;;;;;;;;31.25;24.75;;;;;7.75;100.00;101703.06;6367724;22;45515;-81
2022/04/10 07:26:08;;;;;;;;;29.50;25.00;;;;;7.88;100.00;101711.78;6366612;22;48407;-82
2022/04/10 07:28:34;;;;;;;;;28.00;22.00;;;;;7.99;100.00;101710.84;6367021;22;45501;-82
2022/04/10 07:31:00;;;;;;;;;28.00;24.75;;;;;8.10;100.00;101710.69;6395087;22;45691;-82
2022/04/10 07:33:26;;;;;;;;;29.50;25.50;;;;;8.20;100.00;101707.94;6397301;22;45364;-82
2022/04/10 07:35:51;;;;;;;;;26.25;25.00;;;;;8.32;100.00;101714.84;6365830;22;46846;-83
2022/04/10 07:38:17;;;;;;;;;35.50;26.00;;;;;8.42;100.00;101717.31;6394801;22;45268;-83
2022/04/10 07:40:43;;;;;;;;;27.00;23.25;;;;;8.53;100.00;101719.78;6398087;22;45298;-82
2022/04/10 07:43:08;;;;;;;;;31.00;24.25;;;;;8.66;100.00;101727.69;6400437;22;45593;-82
2022/04/10 07:48:18;;;;;;;;;30.25;24.75;;;;;8.85;100.00;101734.19;6402327;22;45312;-82
2022/04/10 07:50:43;;;;;;;;;26.75;23.25;;;;;8.96;100.00;101726.16;6394789;22;52776;-82
2022/04/10 07:53:09;;;;;;;;;25.25;24.00;;;;;9.07;100.00;101738.25;6392897;22;45266;-83
2022/04/10 07:55:34;;;;;;;;;30.75;28.25;;;;;9.15;100.00;101741.41;6361794;22;47638;-83
2022/04/10 07:58:00;;;;;;;;;29.75;29.50;;;;;9.23;100.00;101726.19;6395598;22;45446;-83
2022/04/10 08:00:26;;;;;;;;;30.50;24.75;;;;;9.33;100.00;101725.13;6365352;22;45513;-82
2022/04/10 08:02:52;;;;;;;;;28.50;27.25;;;;;9.46;100.00;101729.44;6395414;22;45377;-83
2022/04/10 08:05:19;;;;;;;;;29.50;25.50;;;;;9.55;100.00;101727.44;6394132;22;46110;-83
2022/04/10 08:07:46;;;;;;;;;31.00;24.50;;;;;9.64;100.00;101734.97;6388657;22;45743;-83
2022/04/10 08:10:13;;;;;;;;;36.00;29.75;;;;;9.73;100.00;101732.06;6394940;22;45405;-83
2022/04/10 08:12:42;;;;;;;;;29.75;27.00;;;;;9.82;100.00;101729.09;6366286;22;45393;-83
2022/04/10 08:15:08;;;;;;;;;35.75;31.00;;;;;9.92;100.00;101730.63;6393795;22;45856;-81
2022/04/10 08:17:33;;;;;;;;;29.75;25.75;;;;;10.03;100.00;101732.22;6365466;22;46258;-80
2022/04/10 08:20:03;;;;;;;;;28.50;27.00;;;;;10.15;100.00;101737.31;6395392;22;45776;-82
2022/04/10 08:22:29;;;;;;;;;26.75;25.25;;;;;10.24;100.00;101739.63;6394234;22;45545;-83
2022/04/10 08:24:55;;;;;;;;;38.00;32.25;;;;;10.38;100.00;101737.88;6403233;22;46471;-82
2022/04/10 08:27:21;;;;;;;;;30.50;28.75;;;;;10.50;100.00;101742.06;6394683;22;45386;-82
2022/04/10 08:29:46;;;;;;;;;28.50;24.75;;;;;10.63;100.00;101748.09;6365827;22;45298;-82
2022/04/10 08:32:12;;;;;;;;;29.50;25.00;;;;;10.77;100.00;101746.31;6395341;22;45353;-83
2022/04/10 08:34:37;;;;;;;;;29.75;25.00;;;;;10.87;100.00;101746.06;6394550;22;46148;-82
2022/04/10 08:37:05;;;;;;;;;25.50;24.25;;;;;10.98;100.00;101746.69;6393121;22;45677;-82
2022/04/10 08:39:34;;;;;;;;;28.50;25.75;;;;;11.09;100.00;101759.56;6395342;22;45374;-81
2022/04/10 08:42:02;;;;;;;;;29.75;27.25;;;;;11.16;100.00;101764.38;6394398;22;45669;-82
2022/04/10 08:44:31;;;;;;;;;32.00;26.50;;;;;11.20;100.00;101766.38;6367962;22;47012;-82
2022/04/10 08:47:01;;;;;;;;;26.50;23.75;;;;;11.23;100.00;101760.41;6368283;22;45340;-83
2022/04/10 08:49:31;;;;;;;;;25.50;23.00;;;;;11.28;100.00;101767.75;6395291;22;45296;-83
2022/04/10 08:51:58;;;;;;;;;25.75;21.00;;;;;11.40;100.00;101775.44;6393179;22;45698;-83
2022/04/10 08:54:25;;;;;;;;;27.00;21.00;;;;;11.46;100.00;101772.28;6394524;22;46854;-83
2022/04/10 08:56:50;;;;;;;;;22.50;18.50;;;;;11.58;100.00;101776.41;6395925;22;45342;-83
2022/04/10 08:59:20;;;;;;;;;25.00;20.75;;;;;11.70;100.00;101776.22;6396280;22;45359;-83
2022/04/10 09:01:45;;;;;;;;;17.00;17.00;;;;;11.81;100.00;101783.00;6367357;22;45312;-83
2022/04/10 09:04:12;;;;;;;;;16.25;16.00;;;;;11.83;100.00;101783.97;6372364;22;46108;-82
2022/04/10 09:06:40;;;;;;;;;14.00;10.00;;;;;11.92;100.00;101785.34;6366878;22;45653;-83
2022/04/10 09:09:12;;;;;;;;;9.00;8.67;;;;;12.00;100.00;101802.47;6396085;22;45375;-82
2022/04/10 09:11:39;;;;;;;;;9.33;6.67;;;;;12.06;100.00;101794.91;6396847;22;45295;-82
2022/04/10 09:14:06;;;;;;;;;7.00;7.00;;;;;12.12;100.00;101791.72;6395766;22;45878;-82
2022/04/10 09:16:31;;;;;;;;;9.00;7.00;;;;;12.20;100.00;101796.53;6366315;22;45404;-82
2022/04/10 09:18:57;;;;;;;;;6.33;6.33;;;;;12.31;100.00;101799.75;6396516;22;45651;-82
2022/04/10 09:21:46;;;;;;;;;11.50;8.00;;;;;12.42;100.00;101793.34;6395688;22;45466;-82
2022/04/10 09:24:13;;;;;;;;;13.00;8.00;;;;;12.56;100.00;101803.72;6400553;22;45531;-81
2022/04/10 09:26:43;;;;;;;;;11.00;6.67;;;;;12.64;100.00;101807.69;6370243;22;45259;-82
2022/04/10 09:29:10;;;;;;;;;8.00;6.67;;;;;12.71;100.00;101811.56;6396923;22;45713;-82
2022/04/10 09:31:35;;;;;;;;;10.67;10.67;;;;;12.80;100.00;101808.53;6396456;22;45326;-82
2022/04/10 09:34:06;;;;;;;;;10.00;9.33;;;;;12.91;100.00;101817.88;6395397;22;45996;-82
2022/04/10 09:36:42;;;;;;;;;7.33;5.67;;;;;13.01;100.00;101810.50;6365927;22;45394;-82
2022/04/10 09:39:34;;;;;;;;;9.75;7.25;;;;;13.09;100.00;101816.16;6367385;22;45399;-82
2022/04/10 09:42:08;;;;;;;;;10.00;9.00;;;;;13.16;100.00;101805.09;6395721;22;45367;-82
2022/04/10 09:44:37;;;;;;;;;7.33;5.67;;;;;13.27;100.00;101808.31;6365827;22;47147;-82
2022/04/10 09:47:06;;;;;;;;;8.67;6.67;;;;;13.37;100.00;101815.88;6394138;22;45388;-82
2022/04/10 09:49:32;;;;;;;;;7.33;7.00;;;;;13.46;100.00;101822.41;6394991;22;45263;-82
2022/04/10 09:52:08;;;;;;;;;9.00;7.00;;;;;13.51;100.00;101821.81;6366009;22;45242;-82
2022/04/10 09:54:40;;;;;;;;;5.33;5.33;;;;;13.56;100.00;101818.50;6366248;22;46992;-82
2022/04/10 09:57:11;;;;;;;;;8.00;6.00;;;;;13.60;100.00;101802.97;6366436;22;45484;-82
2022/04/10 09:59:40;;;;;;;;;4.67;4.67;;;;;13.65;100.00;101823.38;6390272;22;45335;-85
2022/04/10 10:02:07;;;;;;;;;7.00;4.67;;;;;13.74;100.00;101815.91;6366708;22;45303;-86
2022/04/10 10:04:37;;;;;;;;;5.33;3.00;;;;;13.82;100.00;101821.56;6366143;22;47617;-85
2022/04/10 10:07:29;;;;;;;;;8.00;5.00;;;;;13.87;100.00;101808.59;6367534;22;45579;-85
2022/04/10 10:09:57;;;;;;;;;10.33;5.33;;;;;13.95;100.00;101817.78;6362349;22;45438;-86
2022/04/10 10:12:25;;;;;;;;;5.33;4.00;;;;;14.02;100.00;101816.38;6364346;22;45481;-85
2022/04/10 10:14:51;;;;;;;;;7.00;4.00;;;;;14.06;100.00;101811.31;6365546;22;48366;-85
2022/04/10 10:17:17;;;;;;;;;4.00;4.00;;;;;14.13;100.00;101811.59;6396882;22;45261;-85
2022/04/10 10:19:42;;;;;;;;;3.33;3.33;;;;;14.15;100.00;101805.56;6395945;22;45238;-85
2022/04/10 10:22:10;;;;;;;;;4.67;4.00;;;;;14.24;100.00;101820.94;6398248;22;45477;-85
2022/04/10 10:24:50;;;;;;;;;4.00;4.00;;;;;14.27;100.00;101810.53;6367157;22;47297;-84
2022/04/10 10:27:40;;;;;;;;;4.00;4.00;;;;;14.31;100.00;101801.00;6364289;22;45844;-85
2022/04/10 10:30:39;;;;;;;;;8.33;5.33;;;;;14.35;100.00;101794.13;6366763;22;45417;-85
2022/04/10 10:33:26;;;;;;;;;5.00;4.00;;;;;14.35;100.00;101794.13;6363075;22;45327;-85
2022/04/10 10:35:55;;;;;;;;;6.33;4.67;;;;;14.37;100.00;101796.03;6395030;22;45478;-84
2022/04/10 10:38:28;;;;;;;;;6.67;5.00;;;;;14.47;100.00;101792.06;6396222;22;45746;-85
2022/04/10 10:41:17;;;;;;;;;5.00;4.67;;;;;14.52;100.00;101786.97;6369527;22;45314;-88
2022/04/10 10:43:42;;;;;;;;;4.67;4.67;;;;;14.60;100.00;101788.25;6400909;22;45738;-86
2022/04/10 10:46:26;;;;;;;;;4.00;4.00;;;;;14.74;100.00;101787.97;6366544;22;46288;-85
2022/04/10 10:49:17;;;;;;;;;6.67;4.67;;;;;14.85;100.00;101784.06;6397459;22;45487;-86
2022/04/10 10:51:44;;;;;;;;;5.00;5.00;;;;;15.00;100.00;101788.22;6371330;22;45313;-87
2022/04/10 10:54:21;;;;;;;;;5.33;3.33;;;;;15.19;100.00;101763.50;6397959;22;45301;-84
2022/04/10 10:56:47;;;;;;;;;9.67;5.67;;;;;15.45;100.00;101773.38;6397781;22;45471;-84
2022/04/10 10:59:22;;;;;;;;;4.00;4.00;;;;;15.84;100.00;101774.03;6399429;22;45374;-84
2022/04/10 11:02:08;;;;;;;;;5.00;5.00;;;;;16.38;100.00;101766.41;6400342;22;45263;-85
2022/04/10 11:04:46;;;;;;;;;4.00;4.00;;;;;16.91;100.00;101760.34;6401410;22;45392;-85
2022/04/10 11:07:19;;;;;;;;;4.00;4.00;;;;;17.44;100.00;101769.25;6399938;22;46493;-86
2022/04/10 11:09:56;;;;;;;;;4.67;3.33;;;;;18.16;100.00;101763.50;6373767;22;45324;-86
2022/04/10 11:12:28;;;;;;;;;3.67;2.33;;;;;19.34;100.00;101748.13;6369896;22;45291;-84